• Join FlightAware (Why Join?)
  • Login
  • US Flag 
01:33AM EST


 

Airport Tracker/Info


-or-


 

Live Flight TrackerFlight Track Log ✈ FLG3729 ✈ 28-Dec-2013 ✈ KMSN - KMSP

Flight Track Log - Related Links

Times and Time Zones

All times are in EST time to prevent confusion due to time zone crossing. See the FLG3729 flight status page for this flight to view local times or setup timezone preferences in your user account.

Time Position Orientation Groundspeed Altitude Reporting Facility
EST Latitude Longitude Course Direction KTS MPH feet Rate Location/Type
04:15PM 43.0975 -89.3492 221° Southwest 159 183 3,000  Level Chicago Center
04:16PM 43.0656 -89.3867 221° Southwest 182 209 4,800 2,160 Climbing Chicago Center
04:17PM 43.1156 -89.4444 320° Northwest 240 276 7,500 2,520 Climbing Chicago Center
04:18PM 43.1800 -89.4961 330° Northwest 264 304 10,000 2,220 Climbing Chicago Center
04:19PM 43.2547 -89.5828 320° Northwest 287 330 12,100 1,740 Climbing Chicago Center
04:20PM 43.3256 -89.6625 321° Northwest 316 364 13,700 1,500 Climbing Chicago Center
04:22PM 43.4008 -89.7444 322° Northwest 335 386 15,200 1,440 Climbing Chicago Center
04:23PM 43.4756 -89.8286 321° Northwest 343 395 16,700 1,200 Climbing Chicago Center
04:24PM 43.5528 -89.9161 321° Northwest 355 409 17,700 1,020 Climbing Chicago Center
04:25PM 43.6325 -90.0069 321° Northwest 368 423 18,900 1,080 Climbing Chicago Center
04:26PM 43.7167 -90.0981 322° Northwest 379 436 20,000 480 Climbing Chicago Center
04:27PM 43.8147 -90.2106 320° Northwest 383 441 20,000  Level Chicago Center
04:28PM 43.8917 -90.3003 320° Northwest 376 433 20,000  Level Chicago Center
04:29PM 43.9753 -90.3936 321° Northwest 375 432 20,000  Level Minneapolis Center
04:30PM 44.0544 -90.4844 321° Northwest 371 427 20,000  Level Minneapolis Center
04:31PM 44.1289 -90.5706 320° Northwest 370 426 20,000  Level Minneapolis Center
04:32PM 44.2033 -90.6669 317° Northwest 370 426 20,000  Level Minneapolis Center
04:33PM 44.2525 -90.7842 300° West 354 407 20,000  Level Minneapolis Center
04:34PM 44.3028 -90.9019 301° West 356 410 20,000  Level Minneapolis Center
04:35PM 44.3600 -91.0431 300° West 358 412 20,000  Level Minneapolis Center
04:36PM 44.4111 -91.1650 300° West 362 417 20,000  Level Minneapolis Center
04:37PM 44.4619 -91.2847 301° West 361 415 20,000  Level Minneapolis Center
04:38PM 44.5117 -91.4031 301° West 356 410 20,000  Level Minneapolis Center
04:39PM 44.5692 -91.5478 299° West 355 409 20,000 -120 Level Minneapolis Center
04:40PM 44.6178 -91.6706 299° West 357 411 19,800 -1,080 Descending Minneapolis Center
04:41PM 44.6678 -91.7919 300° West 359 413 17,800 -1,860 Descending Minneapolis Center
04:42PM 44.7172 -91.9086 301° West 353 406 16,000 -1,800 Descending Minneapolis Center
04:43PM 44.7633 -92.0233 300° West 342 394 14,200 -1,800 Descending Minneapolis Center
04:44PM 44.8108 -92.1392 300° West 341 392 12,400 -1,980 Descending Minneapolis Center
04:45PM 44.8381 -92.2781 285° West 313 360 10,200 -1,140 Descending Minneapolis Center
04:46PM 44.8275 -92.4003 263° West 316 364 10,100 -240 Descending Minneapolis Center
04:47PM 44.8150 -92.5114 261° West 286 329 9,800 -780 Descending Minneapolis Center
04:48PM 44.8056 -92.6075 262° West 250 288 8,600 -1,140 Descending Minneapolis Center
04:49PM 44.8097 -92.7056 273° West 251 289 7,500 -1,140 Descending Minneapolis Center
04:50PM 44.8142 -92.8019 274° West 249 287 6,300 -1,320 Descending Minneapolis Center
04:51PM 44.8175 -92.8997 273° West 240 276 4,900 -1,260 Descending Minneapolis Center
04:52PM 44.8233 -93.0019 275° West 231 266 3,700 -1,140 Descending Minneapolis Center
04:53PM 44.8406 -93.0819 287° West 219 252 2,600 -900 Descending Minneapolis Center
04:54PM 44.8581 -93.1383 294° West 159 183 1,900 -780 Descending Minneapolis Center
04:55PM 44.8764 -93.1825 300° West 134 154 1,100 -780 Descending Minneapolis Center
04:57PM 44.8667 -93.2167 270° West  Level FlightAware Approximate
05:04PM 44.8820 -93.2218 270° West  Level Estimated